Time;durP1;ratioP1;P1;durP2;ratioP2;P2;SDS_P1;SDS_P2;PMS_P1;PMS_P2;Temp;Humidity;BMP_temperature;BMP_pressure;BME280_temperature;BME280_humidity;BME280_pressure;Samples;Min_cycle;Max_cycle;Signal;HPM_P1;HPM_P2
2023/05/21 00:00:47;;;;;;;2.83;1.70;;;14.80;99.90;;;;;;5021703;28;20109;-82
2023/05/21 00:03:13;;;;;;;1.73;1.20;;;14.90;99.90;;;;;;5016755;28;20112;-82
2023/05/21 00:05:43;;;;;;;3.20;1.60;;;14.90;99.90;;;;;;5015923;28;20036;-82
2023/05/21 00:08:08;;;;;;;2.75;1.70;;;14.90;99.90;;;;;;5018163;28;20042;-82
2023/05/21 00:10:34;;;;;;;3.78;1.60;;;15.00;99.90;;;;;;5016914;28;20360;-82
2023/05/21 00:12:59;;;;;;;1.85;1.17;;;15.10;99.90;;;;;;5017364;28;20036;-82
2023/05/21 00:15:25;;;;;;;2.70;1.60;;;15.10;99.90;;;;;;5017087;28;20149;-82
2023/05/21 00:17:50;;;;;;;3.58;1.67;;;15.10;99.90;;;;;;5017786;28;20387;-83
2023/05/21 00:20:16;;;;;;;2.20;1.50;;;15.10;99.90;;;;;;5016164;28;20081;-83
2023/05/21 00:22:42;;;;;;;2.35;1.40;;;15.10;99.90;;;;;;5015815;28;20040;-83
2023/05/21 00:25:09;;;;;;;2.38;1.25;;;15.20;99.90;;;;;;5016200;28;20425;-82
2023/05/21 00:27:34;;;;;;;2.65;1.58;;;15.20;99.90;;;;;;5016858;28;20883;-82
2023/05/21 00:30:00;;;;;;;3.58;1.70;;;15.20;99.90;;;;;;5017958;28;20059;-83
2023/05/21 00:32:25;;;;;;;3.05;2.00;;;15.20;99.90;;;;;;5017280;28;20033;-82
2023/05/21 00:34:51;;;;;;;2.10;1.52;;;15.20;99.90;;;;;;5014874;28;20412;-83
2023/05/21 00:37:17;;;;;;;2.60;1.75;;;15.20;99.90;;;;;;5018886;28;20041;-82
2023/05/21 00:39:42;;;;;;;3.05;1.80;;;15.10;99.90;;;;;;5016842;28;20513;-83
2023/05/21 00:42:08;;;;;;;3.97;1.70;;;15.20;99.90;;;;;;5016841;28;20044;-83
2023/05/21 00:44:34;;;;;;;3.95;2.00;;;15.10;99.90;;;;;;5016943;28;20029;-82
2023/05/21 00:47:05;;;;;;;3.60;2.00;;;15.10;99.90;;;;;;5017915;28;20667;-83
2023/05/21 00:49:30;;;;;;;5.00;2.13;;;15.10;99.90;;;;;;5014468;28;20040;-83
2023/05/21 00:51:56;;;;;;;3.22;2.05;;;15.10;99.90;;;;;;5015823;28;20034;-82
2023/05/21 00:54:23;;;;;;;2.70;1.55;;;15.10;99.90;;;;;;5025621;28;20075;-82
2023/05/21 00:56:50;;;;;;;2.72;2.00;;;15.10;99.90;;;;;;5015937;28;20369;-82
2023/05/21 00:59:16;;;;;;;3.72;2.10;;;15.10;99.90;;;;;;5016740;28;20048;-83
2023/05/21 01:01:44;;;;;;;5.30;2.20;;;15.10;99.90;;;;;;5015873;28;20017;-82
2023/05/21 01:04:10;;;;;;;3.30;2.00;;;15.10;99.90;;;;;;5016742;28;20764;-82
2023/05/21 01:06:36;;;;;;;3.92;1.77;;;15.10;99.90;;;;;;5015268;28;20026;-83
2023/05/21 01:09:05;;;;;;;2.97;1.83;;;15.10;99.90;;;;;;5016381;28;20167;-82
2023/05/21 01:11:39;;;;;;;2.33;1.60;;;15.00;99.90;;;;;;5014984;28;20438;-83
2023/05/21 01:14:08;;;;;;;2.95;1.80;;;15.00;99.90;;;;;;5015989;28;20514;-83
2023/05/21 01:16:36;;;;;;;3.47;1.70;;;15.00;99.90;;;;;;5016723;28;20610;-83
2023/05/21 01:19:02;;;;;;;4.10;2.28;;;15.00;99.90;;;;;;5014328;28;20035;-82
2023/05/21 01:21:29;;;;;;;4.03;2.25;;;15.00;99.90;;;;;;5014740;28;20029;-83
2023/05/21 01:23:54;;;;;;;3.08;1.73;;;15.00;99.90;;;;;;5016152;28;20037;-82
2023/05/21 01:26:20;;;;;;;3.40;2.00;;;15.00;99.90;;;;;;5015582;28;20044;-81
2023/05/21 01:28:46;;;;;;;2.60;1.80;;;15.00;99.90;;;;;;5016380;28;20121;-82
2023/05/21 01:31:36;;;;;;;2.92;1.90;;;15.00;99.90;;;;;;5016790;28;20047;-83
2023/05/21 01:34:06;;;;;;;3.80;1.88;;;15.00;99.90;;;;;;5016203;28;20026;-83
2023/05/21 01:36:39;;;;;;;2.97;2.10;;;15.00;99.90;;;;;;5015151;28;20026;-82
2023/05/21 01:39:13;;;;;;;3.45;2.10;;;15.00;99.90;;;;;;5014021;28;20029;-83
2023/05/21 01:41:43;;;;;;;4.20;2.20;;;14.90;99.90;;;;;;5014740;28;20116;-82
2023/05/21 01:44:10;;;;;;;3.40;2.25;;;15.00;99.90;;;;;;5015934;28;20048;-82
2023/05/21 01:46:37;;;;;;;3.58;1.98;;;15.00;99.90;;;;;;5016159;28;20038;-82
2023/05/21 01:49:05;;;;;;;2.42;1.83;;;15.00;99.90;;;;;;5018647;28;20113;-83
2023/05/21 01:51:31;;;;;;;3.22;2.25;;;15.00;99.90;;;;;;5028559;28;22309;-82
2023/05/21 01:53:57;;;;;;;3.40;2.17;;;15.00;99.90;;;;;;5014316;28;20113;-82
2023/05/21 01:56:24;;;;;;;3.83;2.20;;;15.00;99.90;;;;;;5012701;28;20100;-82
2023/05/21 01:58:50;;;;;;;3.67;2.15;;;15.00;99.90;;;;;;5014733;28;20063;-82
2023/05/21 02:01:16;;;;;;;2.95;2.00;;;15.00;99.90;;;;;;5015644;28;20032;-82
2023/05/21 02:03:41;;;;;;;4.95;2.55;;;15.00;99.90;;;;;;5013869;28;20022;-83
2023/05/21 02:06:07;;;;;;;4.03;2.55;;;14.90;99.90;;;;;;5013474;28;20036;-81
2023/05/21 02:08:32;;;;;;;3.38;2.30;;;15.00;99.90;;;;;;5012528;28;20038;-82
2023/05/21 02:10:58;;;;;;;3.22;2.15;;;14.90;99.90;;;;;;5013955;28;20045;-82
2023/05/21 02:13:23;;;;;;;3.88;2.60;;;14.90;99.90;;;;;;5013545;28;20037;-81
2023/05/21 02:15:53;;;;;;;3.50;2.17;;;14.90;99.90;;;;;;5015155;28;20042;-83
2023/05/21 02:18:20;;;;;;;4.72;2.00;;;14.90;99.90;;;;;;5014224;28;20057;-82
2023/05/21 02:20:45;;;;;;;3.70;2.45;;;14.90;99.90;;;;;;5014550;28;20104;-83
2023/05/21 02:23:11;;;;;;;3.47;2.40;;;14.80;99.90;;;;;;5014495;28;20483;-83
2023/05/21 02:25:37;;;;;;;4.03;2.50;;;14.80;99.90;;;;;;5014094;28;20498;-82
2023/05/21 02:28:02;;;;;;;3.88;2.47;;;14.70;99.90;;;;;;5013621;28;20617;-83
2023/05/21 02:30:28;;;;;;;2.97;2.15;;;14.70;99.90;;;;;;5016536;28;20368;-82
2023/05/21 02:32:54;;;;;;;2.95;2.10;;;14.70;99.90;;;;;;5015935;28;20022;-82
2023/05/21 02:35:20;;;;;;;4.38;2.67;;;14.70;99.90;;;;;;5013594;28;20044;-82
2023/05/21 02:37:45;;;;;;;4.22;2.78;;;14.80;99.90;;;;;;5017642;28;20541;-83
2023/05/21 02:40:12;;;;;;;3.97;2.53;;;14.80;99.90;;;;;;5014708;28;20486;-82
2023/05/21 02:42:40;;;;;;;4.07;2.60;;;14.80;99.90;;;;;;5013770;28;20144;-83
2023/05/21 02:45:10;;;;;;;4.10;2.65;;;14.80;99.90;;;;;;5015465;28;20096;-83
2023/05/21 02:47:37;;;;;;;4.13;2.70;;;14.80;99.90;;;;;;5015508;28;20077;-82
2023/05/21 02:50:04;;;;;;;4.20;2.38;;;14.70;99.90;;;;;;5014358;28;20017;-83
2023/05/21 02:52:30;;;;;;;3.72;2.38;;;14.70;99.90;;;;;;5013538;28;20033;-83
2023/05/21 02:54:55;;;;;;;4.20;2.70;;;14.70;99.90;;;;;;5014274;28;20493;-84
2023/05/21 02:57:21;;;;;;;5.68;2.75;;;14.70;99.90;;;;;;5014479;28;20083;-83
2023/05/21 02:59:46;;;;;;;4.65;2.50;;;14.70;99.90;;;;;;5014976;28;20022;-83
2023/05/21 03:02:12;;;;;;;4.53;2.92;;;14.70;99.90;;;;;;5015338;28;20083;-82
2023/05/21 03:04:37;;;;;;;4.55;2.83;;;14.60;99.90;;;;;;5013491;28;20101;-82
2023/05/21 03:07:04;;;;;;;4.28;2.95;;;14.70;99.90;;;;;;5013216;28;20129;-82
2023/05/21 03:09:30;;;;;;;4.28;2.88;;;14.70;99.90;;;;;;5013753;28;20069;-84
2023/05/21 03:11:55;;;;;;;3.90;2.50;;;14.60;99.90;;;;;;5013748;28;20077;-83
2023/05/21 03:14:21;;;;;;;3.90;2.40;;;14.70;99.90;;;;;;5014772;28;20032;-82
2023/05/21 03:16:47;;;;;;;4.25;2.83;;;14.60;99.90;;;;;;5016032;28;20018;-82
2023/05/21 03:19:13;;;;;;;4.28;2.65;;;14.60;99.90;;;;;;5014134;28;20668;-82
2023/05/21 03:21:39;;;;;;;3.60;2.72;;;14.70;99.90;;;;;;5013013;28;20033;-82
2023/05/21 03:24:05;;;;;;;5.38;2.50;;;14.70;99.90;;;;;;5013750;28;20014;-82
2023/05/21 03:26:31;;;;;;;4.18;2.60;;;14.60;99.90;;;;;;5017781;28;20040;-82
2023/05/21 03:28:56;;;;;;;4.07;2.45;;;14.60;99.90;;;;;;5016922;28;20030;-82
2023/05/21 03:31:25;;;;;;;3.97;2.65;;;14.60;99.90;;;;;;5020080;28;20029;-82
2023/05/21 03:33:52;;;;;;;4.63;3.00;;;14.60;99.90;;;;;;5017842;28;20105;-82
2023/05/21 03:36:18;;;;;;;4.53;2.80;;;14.70;99.90;;;;;;5015918;28;20105;-83
2023/05/21 03:38:44;;;;;;;4.43;3.17;;;14.60;99.90;;;;;;5016631;28;20113;-84
2023/05/21 03:41:10;;;;;;;4.28;2.75;;;14.60;99.90;;;;;;5017460;28;20021;-82
2023/05/21 03:43:35;;;;;;;4.50;2.63;;;14.60;99.90;;;;;;5017928;28;20555;-81
2023/05/21 03:46:01;;;;;;;4.80;2.85;;;14.60;99.90;;;;;;5018351;28;20025;-81
2023/05/21 03:48:27;;;;;;;5.07;3.05;;;14.60;99.90;;;;;;5019788;28;20527;-81
2023/05/21 03:50:52;;;;;;;4.35;2.95;;;14.50;99.90;;;;;;5017971;28;20092;-83
2023/05/21 03:53:18;;;;;;;3.85;2.67;;;14.50;99.90;;;;;;5017252;28;20466;-82
2023/05/21 03:55:43;;;;;;;3.88;2.50;;;14.50;99.90;;;;;;5017635;28;20037;-82
2023/05/21 03:58:09;;;;;;;3.78;2.60;;;14.40;99.90;;;;;;5017728;28;20033;-82
2023/05/21 04:00:36;;;;;;;3.40;2.45;;;14.40;99.90;;;;;;5017709;28;20033;-82
2023/05/21 04:03:02;;;;;;;3.83;2.78;;;14.40;99.90;;;;;;5017538;28;20032;-82
2023/05/21 04:05:28;;;;;;;3.38;2.60;;;14.40;99.90;;;;;;5016864;28;20030;-82
2023/05/21 04:07:53;;;;;;;3.78;2.80;;;14.40;99.90;;;;;;5017385;28;20072;-82
2023/05/21 04:10:19;;;;;;;3.53;2.65;;;14.40;99.90;;;;;;5016100;28;20022;-82
2023/05/21 04:12:47;;;;;;;5.55;3.00;;;14.40;99.90;;;;;;5017317;28;20072;-83
2023/05/21 04:15:17;;;;;;;3.70;2.80;;;14.50;99.90;;;;;;5032867;28;20022;-82
2023/05/21 04:17:44;;;;;;;4.15;2.67;;;14.50;99.90;;;;;;5018234;28;20048;-81
2023/05/21 04:20:10;;;;;;;5.60;3.20;;;14.50;99.90;;;;;;5016006;28;20050;-82
2023/05/21 04:22:36;;;;;;;6.03;3.45;;;14.60;99.90;;;;;;5016384;28;20026;-81
2023/05/21 04:25:02;;;;;;;5.13;3.05;;;14.60;99.90;;;;;;5015185;28;20040;-83
2023/05/21 04:27:27;;;;;;;5.30;3.30;;;14.70;99.90;;;;;;5016723;28;20038;-83
2023/05/21 04:29:53;;;;;;;6.47;3.53;;;14.70;99.90;;;;;;5016651;28;20026;-82
2023/05/21 04:32:19;;;;;;;7.80;3.20;;;14.70;99.90;;;;;;5018307;28;20483;-83
2023/05/21 04:34:45;;;;;;;4.97;3.13;;;14.70;99.90;;;;;;5018276;28;20484;-83
2023/05/21 04:37:10;;;;;;;4.53;2.88;;;14.80;99.90;;;;;;5015307;28;20103;-82
2023/05/21 04:39:36;;;;;;;4.35;3.10;;;14.80;99.90;;;;;;5015125;28;20109;-83
2023/05/21 04:42:02;;;;;;;6.25;3.90;;;14.80;99.90;;;;;;5016475;28;20021;-82
2023/05/21 04:44:28;;;;;;;5.13;3.28;;;14.80;99.90;;;;;;5016365;28;21051;-82
2023/05/21 04:46:56;;;;;;;5.22;3.35;;;14.80;99.90;;;;;;5018251;28;20085;-84
2023/05/21 04:49:21;;;;;;;4.72;3.13;;;14.80;99.90;;;;;;5017827;28;20104;-82
2023/05/21 04:51:48;;;;;;;4.32;3.03;;;14.80;99.90;;;;;;5015666;28;20073;-82
2023/05/21 04:54:14;;;;;;;4.10;2.67;;;14.80;99.90;;;;;;5031707;28;20564;-82
2023/05/21 04:56:39;;;;;;;4.40;3.38;;;14.80;99.90;;;;;;5016325;28;20245;-83
2023/05/21 04:59:05;;;;;;;5.30;3.22;;;14.80;99.90;;;;;;5017782;28;20487;-83
2023/05/21 05:01:34;;;;;;;5.28;3.13;;;14.80;99.90;;;;;;5016508;28;20037;-82
2023/05/21 05:04:00;;;;;;;5.97;3.53;;;14.80;99.90;;;;;;5033395;28;20037;-82
2023/05/21 05:06:25;;;;;;;5.03;3.30;;;14.80;99.90;;;;;;5022258;28;20494;-82
2023/05/21 05:08:51;;;;;;;4.57;2.92;;;14.80;99.90;;;;;;5014673;28;20028;-83
2023/05/21 05:11:16;;;;;;;4.47;2.83;;;14.80;99.90;;;;;;5014620;28;20703;-83
2023/05/21 05:13:42;;;;;;;3.92;2.80;;;14.80;99.90;;;;;;5017119;28;20057;-83
2023/05/21 05:16:08;;;;;;;4.30;3.13;;;14.80;99.90;;;;;;5015632;28;20026;-83
2023/05/21 05:18:34;;;;;;;4.30;3.20;;;14.80;99.90;;;;;;5016481;28;20029;-83
2023/05/21 05:21:00;;;;;;;4.10;2.85;;;14.80;99.90;;;;;;5015296;28;20084;-82
2023/05/21 05:23:25;;;;;;;4.40;3.20;;;14.80;99.90;;;;;;5030228;28;20017;-82
2023/05/21 05:25:51;;;;;;;5.20;3.55;;;14.80;99.90;;;;;;5016427;28;20479;-82
2023/05/21 05:28:17;;;;;;;6.28;3.50;;;14.80;99.90;;;;;;5013204;28;20430;-82
2023/05/21 05:30:42;;;;;;;6.13;3.58;;;14.80;99.90;;;;;;5015813;28;20438;-83
2023/05/21 05:33:08;;;;;;;4.68;3.22;;;14.80;99.90;;;;;;5016689;28;20805;-82
2023/05/21 05:35:33;;;;;;;5.00;3.03;;;14.90;99.90;;;;;;5015691;28;20155;-84
2023/05/21 05:37:59;;;;;;;4.40;3.00;;;14.90;99.90;;;;;;5015416;28;20160;-83
2023/05/21 05:40:25;;;;;;;5.13;3.13;;;15.00;99.90;;;;;;5014128;28;20101;-82
2023/05/21 05:42:51;;;;;;;5.30;3.05;;;15.00;99.90;;;;;;5015146;28;20041;-82
2023/05/21 05:45:17;;;;;;;5.90;3.50;;;15.00;99.90;;;;;;5014875;28;20088;-83
2023/05/21 05:47:43;;;;;;;4.97;3.67;;;15.00;99.90;;;;;;5015895;28;20029;-82
2023/05/21 05:50:09;;;;;;;5.13;3.80;;;15.00;99.90;;;;;;5017315;28;20033;-83
2023/05/21 05:52:34;;;;;;;5.82;3.72;;;15.00;99.90;;;;;;5014532;28;20044;-83
2023/05/21 05:55:00;;;;;;;7.47;3.92;;;15.00;99.90;;;;;;5014430;28;20026;-81
2023/05/21 05:57:25;;;;;;;6.15;3.72;;;15.00;99.90;;;;;;5014618;28;20036;-82
2023/05/21 05:59:51;;;;;;;5.68;3.58;;;15.00;99.90;;;;;;5015302;28;20515;-82
2023/05/21 06:02:17;;;;;;;4.82;3.47;;;15.00;99.90;;;;;;5016013;28;20431;-82
2023/05/21 06:04:42;;;;;;;6.43;3.35;;;15.10;99.90;;;;;;5016814;28;20444;-81
2023/05/21 06:07:08;;;;;;;4.40;3.20;;;15.10;99.90;;;;;;5015187;28;20048;-81
2023/05/21 06:09:33;;;;;;;4.20;3.15;;;15.20;99.90;;;;;;5014012;28;20021;-82
2023/05/21 06:11:59;;;;;;;4.18;3.15;;;15.20;99.90;;;;;;5015437;28;20123;-82
2023/05/21 06:14:25;;;;;;;4.80;3.30;;;15.30;99.90;;;;;;5013794;28;20025;-82
2023/05/21 06:16:51;;;;;;;4.22;3.13;;;15.40;99.90;;;;;;5016124;28;20034;-82
2023/05/21 06:19:16;;;;;;;5.32;3.67;;;15.40;99.90;;;;;;5016749;28;20044;-81
2023/05/21 06:21:42;;;;;;;5.22;3.58;;;15.50;99.90;;;;;;5017755;28;20026;-83
2023/05/21 06:24:07;;;;;;;4.68;3.47;;;15.50;99.90;;;;;;5013833;28;20860;-83
2023/05/21 06:26:33;;;;;;;4.80;3.47;;;15.60;99.90;;;;;;5013048;28;20063;-81
2023/05/21 06:28:58;;;;;;;5.32;3.60;;;15.70;99.90;;;;;;5014553;28;20038;-82
2023/05/21 06:31:24;;;;;;;4.63;3.00;;;15.80;99.90;;;;;;5013104;28;20018;-83
2023/05/21 06:33:50;;;;;;;4.90;3.17;;;15.90;99.90;;;;;;5015322;28;20547;-82
2023/05/21 06:36:15;;;;;;;4.90;3.30;;;16.00;99.90;;;;;;5015191;28;20026;-83
2023/05/21 06:38:41;;;;;;;5.85;3.78;;;16.10;99.90;;;;;;5014033;28;20025;-83
2023/05/21 06:41:07;;;;;;;4.85;3.25;;;16.10;99.90;;;;;;5014265;28;20049;-82
2023/05/21 06:43:33;;;;;;;5.32;3.67;;;16.20;99.90;;;;;;5012463;28;20034;-82
2023/05/21 06:45:58;;;;;;;6.60;4.05;;;16.30;99.90;;;;;;5013828;28;20029;-84
2023/05/21 06:48:24;;;;;;;5.07;3.30;;;16.40;99.90;;;;;;5014493;28;20538;-83
2023/05/21 06:50:50;;;;;;;5.50;3.67;;;16.50;99.90;;;;;;5016688;28;20486;-84
2023/05/21 06:53:15;;;;;;;8.02;4.07;;;16.60;99.90;;;;;;5019040;28;20057;-85
2023/05/21 06:55:44;;;;;;;7.50;4.25;;;16.60;99.90;;;;;;5012310;28;20018;-84
2023/05/21 06:58:10;;;;;;;6.13;4.15;;;16.70;99.90;;;;;;5016094;28;20608;-85
2023/05/21 07:00:36;;;;;;;4.47;3.42;;;16.80;99.90;;;;;;5014062;28;20586;-82
2023/05/21 07:03:02;;;;;;;4.93;3.05;;;16.90;99.90;;;;;;5013967;28;20518;-83
2023/05/21 07:05:27;;;;;;;6.82;4.00;;;17.00;99.90;;;;;;5015602;28;20113;-86
2023/05/21 07:07:53;;;;;;;5.75;3.83;;;17.10;99.90;;;;;;5015211;28;20034;-87
2023/05/21 07:10:19;;;;;;;6.30;3.60;;;17.20;99.90;;;;;;5012622;28;20037;-85
2023/05/21 07:12:44;;;;;;;5.50;3.85;;;17.20;99.90;;;;;;5014962;28;20042;-84
2023/05/21 07:15:10;;;;;;;6.10;4.30;;;17.30;99.90;;;;;;5023581;28;20117;-84
2023/05/21 07:17:36;;;;;;;5.35;3.53;;;17.40;99.90;;;;;;5012696;28;20095;-85
2023/05/21 07:20:05;;;;;;;6.72;3.78;;;17.40;99.90;;;;;;5014614;28;20025;-84
2023/05/21 07:22:30;;;;;;;6.38;3.95;;;17.50;99.90;;;;;;5013490;28;20022;-84
2023/05/21 07:24:56;;;;;;;5.80;4.03;;;17.50;99.90;;;;;;5014335;28;20107;-85
2023/05/21 07:27:21;;;;;;;8.63;4.13;;;17.50;99.90;;;;;;5017108;28;20048;-85
2023/05/21 07:29:47;;;;;;;6.18;3.83;;;17.50;99.90;;;;;;5013909;28;20536;-83
2023/05/21 07:32:12;;;;;;;6.40;4.15;;;17.50;99.90;;;;;;5015024;28;20041;-84
2023/05/21 07:34:38;;;;;;;5.75;4.28;;;17.60;99.90;;;;;;5012702;28;20022;-80
2023/05/21 07:37:04;;;;;;;5.28;3.47;;;17.60;99.90;;;;;;5015404;28;20105;-83
2023/05/21 07:39:30;;;;;;;5.97;3.78;;;17.70;99.90;;;;;;5012040;28;20156;-84
2023/05/21 07:41:55;;;;;;;4.85;3.90;;;17.80;99.90;;;;;;5013085;28;20030;-84
2023/05/21 07:44:21;;;;;;;5.45;3.97;;;18.00;99.90;;;;;;5017130;28;20029;-84
2023/05/21 07:46:46;;;;;;;5.50;3.80;;;18.00;99.90;;;;;;5013110;28;20057;-84
2023/05/21 07:49:15;;;;;;;5.40;3.55;;;18.00;99.90;;;;;;5029437;28;20044;-84
2023/05/21 07:51:41;;;;;;;4.60;2.63;;;18.20;99.90;;;;;;5028773;28;20387;-85
2023/05/21 07:54:07;;;;;;;7.15;3.58;;;18.20;99.90;;;;;;5012688;28;20513;-84
2023/05/21 07:56:33;;;;;;;6.43;3.47;;;18.30;99.90;;;;;;5016824;28;20033;-84
2023/05/21 07:58:58;;;;;;;4.07;3.10;;;18.50;99.90;;;;;;5016457;28;20195;-86
2023/05/21 08:01:24;;;;;;;5.05;2.97;;;18.60;99.90;;;;;;5013571;28;20025;-81
2023/05/21 08:03:49;;;;;;;6.68;3.42;;;18.70;99.90;;;;;;5014959;28;20045;-84
2023/05/21 08:06:15;;;;;;;5.55;3.83;;;18.80;99.90;;;;;;5013198;28;20086;-86
2023/05/21 08:08:40;;;;;;;6.40;4.40;;;18.90;99.90;;;;;;5013018;28;20040;-88
2023/05/21 08:11:06;;;;;;;7.20;4.25;;;18.90;99.90;;;;;;5016055;28;20046;-83
2023/05/21 08:13:31;;;;;;;5.82;3.97;;;19.00;99.90;;;;;;5017443;28;20038;-83
2023/05/21 08:15:57;;;;;;;5.82;3.97;;;19.10;99.90;;;;;;5017522;28;20026;-84
2023/05/21 08:18:22;;;;;;;6.20;4.13;;;19.10;99.90;;;;;;5019371;28;20025;-83
2023/05/21 08:20:49;;;;;;;6.10;4.47;;;19.20;99.90;;;;;;5016839;28;20466;-84
2023/05/21 08:23:14;;;;;;;4.75;3.63;;;19.30;99.90;;;;;;5019025;28;20022;-85
2023/05/21 08:25:40;;;;;;;5.90;4.30;;;19.40;99.90;;;;;;5016635;28;20057;-84
2023/05/21 08:28:06;;;;;;;4.97;3.35;;;19.50;99.90;;;;;;5017656;28;20400;-82
2023/05/21 08:30:32;;;;;;;5.88;3.95;;;19.60;99.90;;;;;;5015289;28;20041;-82
2023/05/21 08:32:57;;;;;;;6.22;4.25;;;19.70;99.90;;;;;;5015119;28;20021;-85
2023/05/21 08:35:23;;;;;;;6.82;4.65;;;19.70;99.90;;;;;;5014682;28;20029;-82
2023/05/21 08:37:49;;;;;;;6.35;4.35;;;19.80;99.90;;;;;;5020410;28;20044;-84
2023/05/21 08:40:14;;;;;;;6.25;4.35;;;19.90;99.90;;;;;;5013468;28;20475;-83
2023/05/21 08:42:48;;;;;;;5.15;4.00;;;20.10;99.90;;;;;;5012744;28;20100;-84
2023/05/21 08:45:19;;;;;;;6.53;4.25;;;20.30;99.90;;;;;;5014337;28;20412;-84
2023/05/21 08:47:45;;;;;;;7.93;4.78;;;20.40;99.90;;;;;;5016167;28;20046;-85
2023/05/21 08:50:17;;;;;;;6.72;4.95;;;20.50;99.90;;;;;;5014535;28;20027;-84
2023/05/21 08:52:42;;;;;;;6.20;4.80;;;20.40;99.90;;;;;;5014647;28;20487;-83
2023/05/21 08:55:09;;;;;;;8.27;5.10;;;20.50;99.90;;;;;;5013639;28;20036;-82
2023/05/21 08:57:35;;;;;;;7.10;5.15;;;20.60;99.90;;;;;;5014442;28;20396;-82
2023/05/21 09:00:03;;;;;;;8.07;4.70;;;20.60;99.90;;;;;;5014952;28;20018;-82
2023/05/21 09:02:32;;;;;;;6.68;4.57;;;20.70;99.90;;;;;;5014040;28;20041;-82
2023/05/21 09:05:01;;;;;;;5.80;3.88;;;20.90;99.90;;;;;;5014127;28;21848;-82
2023/05/21 09:07:29;;;;;;;6.13;4.63;;;21.00;99.90;;;;;;5015100;28;20437;-82
2023/05/21 09:10:07;;;;;;;6.18;4.70;;;21.10;99.90;;;;;;5014350;28;20029;-82
2023/05/21 09:12:33;;;;;;;6.45;5.32;;;21.20;99.90;;;;;;5015807;28;20059;-84
2023/05/21 09:15:00;;;;;;;5.75;4.70;;;21.20;99.90;;;;;;5018747;28;20041;-81
2023/05/21 09:17:26;;;;;;;6.80;4.97;;;21.20;99.90;;;;;;5031558;28;20063;-83
2023/05/21 09:20:10;;;;;;;8.13;5.18;;;21.20;99.90;;;;;;5016004;28;20088;-84
2023/05/21 09:22:47;;;;;;;7.97;5.20;;;21.40;99.90;;;;;;5015063;28;20022;-84
2023/05/21 09:25:28;;;;;;;6.80;4.43;;;21.50;99.90;;;;;;5016531;28;20021;-84
2023/05/21 09:27:55;;;;;;;7.35;4.85;;;21.60;99.90;;;;;;5016127;28;20033;-85
2023/05/21 09:30:21;;;;;;;6.15;4.53;;;21.90;99.90;;;;;;5017060;28;20061;-84
2023/05/21 09:32:53;;;;;;;5.32;3.90;;;22.50;99.90;;;;;;5015523;28;20120;-84
2023/05/21 09:35:22;;;;;;;4.85;4.15;;;23.50;99.90;;;;;;5015913;28;20076;-85
2023/05/21 09:37:51;;;;;;;6.45;4.50;;;24.30;99.90;;;;;;5016056;28;20037;-84
2023/05/21 09:40:18;;;;;;;6.60;4.22;;;24.80;99.90;;;;;;5015073;28;20386;-84
2023/05/21 09:42:47;;;;;;;4.97;4.13;;;25.40;99.90;;;;;;5016408;28;20030;-85
2023/05/21 09:45:17;;;;;;;5.70;4.10;;;25.80;99.90;;;;;;5016989;28;20632;-85
2023/05/21 09:47:44;;;;;;;5.97;4.13;;;26.00;99.90;;;;;;5016181;28;20041;-84
2023/05/21 09:50:13;;;;;;;7.40;4.90;;;26.20;99.90;;;;;;5015667;28;20028;-85
2023/05/21 09:52:39;;;;;;;9.18;5.25;;;26.30;99.90;;;;;;5014703;28;20117;-84
2023/05/21 09:55:12;;;;;;;7.00;5.32;;;26.40;99.90;;;;;;5029786;28;20032;-84
2023/05/21 09:57:45;;;;;;;8.82;6.15;;;26.60;99.90;;;;;;5014904;28;20053;-85
2023/05/21 10:00:27;;;;;;;8.75;6.15;;;26.60;99.90;;;;;;5016822;28;20479;-85
2023/05/21 10:02:59;;;;;;;9.00;6.13;;;26.60;99.90;;;;;;5017338;28;20614;-86
2023/05/21 10:05:26;;;;;;;6.93;5.47;;;26.70;99.90;;;;;;5016090;28;20037;-87
2023/05/21 10:07:58;;;;;;;7.55;5.10;;;26.60;99.90;;;;;;5016986;28;20042;-87
2023/05/21 10:10:25;;;;;;;6.80;4.90;;;26.80;99.90;;;;;;5015173;28;20029;-87
2023/05/21 10:12:55;;;;;;;6.05;4.97;;;27.20;99.90;;;;;;5015494;28;20041;-85
2023/05/21 10:15:24;;;;;;;7.60;5.57;;;27.60;99.90;;;;;;5015248;28;20160;-84
2023/05/21 10:17:51;;;;;;;7.63;5.88;;;27.70;99.40;;;;;;5023171;28;20506;-84
2023/05/21 10:20:16;;;;;;;9.65;5.95;;;27.50;99.30;;;;;;5014147;28;20036;-83
2023/05/21 10:22:43;;;;;;;6.97;5.50;;;27.50;99.20;;;;;;5014234;28;20033;-83
2023/05/21 10:25:11;;;;;;;6.68;5.30;;;27.80;99.10;;;;;;5014850;28;20525;-84
2023/05/21 10:27:37;;;;;;;5.35;4.60;;;28.30;98.80;;;;;;5014629;28;20487;-80
2023/05/21 10:30:05;;;;;;;7.82;5.47;;;28.70;98.60;;;;;;5015663;28;20108;-80
2023/05/21 10:32:31;;;;;;;9.18;5.30;;;29.00;98.00;;;;;;5016046;28;21953;-80
2023/05/21 10:34:58;;;;;;;8.05;5.35;;;29.10;97.50;;;;;;5013771;28;20548;-80
2023/05/21 10:37:27;;;;;;;6.80;5.78;;;29.10;97.30;;;;;;5014561;28;20030;-86
2023/05/21 10:39:54;;;;;;;7.45;5.47;;;29.00;96.80;;;;;;5018990;28;20095;-86
2023/05/21 10:42:26;;;;;;;7.57;5.45;;;28.90;97.00;;;;;;5020889;28;20121;-88
2023/05/21 10:45:25;;;;;;;6.75;5.50;;;29.10;96.70;;;;;;5022012;28;20090;-87
2023/05/21 10:48:16;;;;;;;8.82;5.80;;;29.40;96.50;;;;;;5020585;28;20029;-86
2023/05/21 10:50:50;;;;;;;6.85;5.32;;;29.80;96.20;;;;;;5017542;28;20030;-86
2023/05/21 10:53:50;;;;;;;9.02;6.70;;;30.00;96.00;;;;;;5014016;28;20052;-87
2023/05/21 10:56:24;;;;;;;7.28;6.20;;;30.10;95.20;;;;;;5007383;28;20125;-87
2023/05/21 10:58:49;;;;;;;7.80;6.30;;;30.10;95.10;;;;;;5014754;28;20037;-86
2023/05/21 11:01:18;;;;;;;7.60;5.65;;;30.20;95.20;;;;;;5015728;28;20032;-86
2023/05/21 11:03:45;;;;;;;8.73;5.82;;;30.50;95.10;;;;;;5015566;28;20598;-88
2023/05/21 11:06:20;;;;;;;7.82;7.03;;;30.70;94.50;;;;;;5015360;28;20039;-87
2023/05/21 11:08:46;;;;;;;8.57;6.53;;;30.60;93.90;;;;;;5014899;28;20049;-88
2023/05/21 11:11:13;;;;;;;9.70;6.18;;;30.50;93.90;;;;;;5014730;28;20062;-85
2023/05/21 11:13:47;;;;;;;8.57;5.68;;;30.50;93.90;;;;;;5028410;28;20054;-84
2023/05/21 11:16:15;;;;;;;6.80;5.90;;;30.70;93.80;;;;;;5015779;28;20025;-87
2023/05/21 11:18:40;;;;;;;8.50;5.47;;;30.60;93.60;;;;;;5014986;28;20033;-84
2023/05/21 11:21:12;;;;;;;7.72;5.30;;;30.60;93.50;;;;;;5014249;28;20022;-85
2023/05/21 11:23:50;;;;;;;7.55;6.07;;;30.80;93.40;;;;;;5016203;28;20022;-83
2023/05/21 11:26:16;;;;;;;5.80;5.20;;;30.90;93.00;;;;;;5012605;28;20091;-85
2023/05/21 11:28:42;;;;;;;7.00;5.72;;;31.10;93.00;;;;;;5013866;28;20387;-82
2023/05/21 11:31:25;;;;;;;5.80;4.97;;;31.20;92.80;;;;;;5014868;28;20025;-82
2023/05/21 11:34:10;;;;;;;8.43;5.20;;;31.40;92.80;;;;;;5013712;28;20701;-82
2023/05/21 11:36:41;;;;;;;8.30;5.85;;;31.50;92.50;;;;;;5012536;28;20034;-84
2023/05/21 11:39:20;;;;;;;6.47;5.43;;;31.60;92.60;;;;;;5014052;28;20033;-84
2023/05/21 11:42:00;;;;;;;7.05;5.22;;;31.80;92.20;;;;;;5013845;28;20018;-84
2023/05/21 11:44:41;;;;;;;6.32;5.18;;;31.80;91.90;;;;;;5013247;28;20037;-85
2023/05/21 11:47:08;;;;;;;7.75;5.22;;;31.80;91.90;;;;;;5019117;28;20034;-87
2023/05/21 11:49:35;;;;;;;7.25;5.50;;;31.80;91.80;;;;;;5017505;28;20503;-86
2023/05/21 11:52:02;;;;;;;5.38;4.88;;;31.80;91.70;;;;;;5016331;28;20122;-83
2023/05/21 11:54:32;;;;;;;7.43;5.53;;;32.00;91.50;;;;;;5017856;28;20113;-85
2023/05/21 11:56:58;;;;;;;7.25;5.22;;;31.90;91.10;;;;;;5018331;28;20044;-86
2023/05/21 11:59:25;;;;;;;7.88;5.07;;;31.80;91.00;;;;;;5017858;28;20036;-84
2023/05/21 12:01:50;;;;;;;6.55;5.30;;;31.80;91.30;;;;;;5018369;28;20037;-83
2023/05/21 12:04:16;;;;;;;7.28;5.68;;;32.10;91.00;;;;;;5017741;28;20038;-86
2023/05/21 12:06:42;;;;;;;7.03;5.22;;;32.20;90.80;;;;;;5017583;28;20029;-79
2023/05/21 12:09:09;;;;;;;6.82;5.10;;;32.30;90.80;;;;;;5017010;28;20041;-83
2023/05/21 12:11:38;;;;;;;5.80;4.90;;;32.40;90.50;;;;;;5016603;28;20085;-83
2023/05/21 12:14:07;;;;;;;7.60;5.72;;;32.40;90.60;;;;;;5017833;28;20633;-83
2023/05/21 12:16:33;;;;;;;7.75;5.32;;;32.60;90.40;;;;;;5018418;28;20037;-84
2023/05/21 12:18:58;;;;;;;7.38;4.97;;;32.60;90.20;;;;;;5034043;28;20037;-83
2023/05/21 12:21:30;;;;;;;6.18;5.05;;;32.60;90.10;;;;;;5016633;28;20030;-83
2023/05/21 12:23:56;;;;;;;7.05;5.45;;;32.70;90.30;;;;;;5016707;28;20029;-83
2023/05/21 12:26:25;;;;;;;11.07;5.78;;;32.80;90.10;;;;;;5017098;28;20029;-83
2023/05/21 12:28:55;;;;;;;7.72;5.93;;;32.70;89.70;;;;;;5017565;28;20030;-84
2023/05/21 12:31:22;;;;;;;7.68;5.43;;;32.60;89.30;;;;;;5017093;28;20033;-83
2023/05/21 12:33:51;;;;;;;5.30;4.80;;;32.70;89.60;;;;;;5019078;28;20028;-84
2023/05/21 12:36:29;;;;;;;9.30;5.13;;;33.00;89.90;;;;;;5016874;28;20040;-83
2023/05/21 12:38:56;;;;;;;7.07;5.35;;;33.00;89.10;;;;;;5015211;28;20041;-84
2023/05/21 12:41:22;;;;;;;5.50;4.70;;;32.90;88.60;;;;;;5017193;28;20025;-84
2023/05/21 12:43:48;;;;;;;7.25;5.70;;;32.90;89.10;;;;;;5016427;28;20383;-84
2023/05/21 12:46:17;;;;;;;6.80;5.88;;;33.10;88.30;;;;;;5018591;28;20613;-85
2023/05/21 12:48:52;;;;;;;6.93;5.10;;;32.90;87.90;;;;;;5018241;28;20078;-87